Columbus, ND (58727)

12:57 PM CDT on July 31, 2014 (GMT -0500)
Crosby (KD50) Elev 1949 ft | 48.93 °N, 103.30 °W | Change Station

Current weather conditions updated 22 minutes ago

Partly Cloudy
Partly Cloudy
77 °F
Feels Like 77 °F
N
10
Wind Variable Wind from SE

Today is forecast to be Warmer than yesterday.

Today
High -- | Low -- °F
--% Chance of Precip.
Yesterday
High -- | Low -- °F
Precip. -- in
6:23 AM 9:31 PM
Waxing Crescent, 20% visible
Pressure 30.08 in
Visibility -9999.0 miles
Clouds Few 11000 ft
Dew Point 59 °F
Humidity 54%
Rainfall 0.00 in
Snow Depth Not available.
UV 8 out of 12
Pollen 7.10 out of 12
Air Quality Not available.
Flu Activity Not available.
METAR KD50 311735Z AUTO 13009KT FEW110 25/15 A3008 RMK AO2

More Conditions Fewer Conditions

Pressure 30.08 in
Visibility -9999.0 miles
Clouds Few 11000 ft
Dew Point 59 °F
Humidity 54%
Rainfall 0.00 in
Snow Depth Not available.
UV 8 out of 12
Pollen 7.10 out of 12
Air Quality Not available.
Flu Activity Not available.
METAR KD50 311735Z AUTO 13009KT FEW110 25/15 A3008 RMK AO2

More Conditions Fewer Conditions

10-Day Weather Forecast

Almanac

Astronomy

Jul. 31, 2014 Rise Set
Actual Time 6:23 AM CDT 9:31 PM CDT
Civil Twilight 5:45 AM CDT 10:08 PM CDT
Nautical Twilight 4:56 AM CDT 10:57 PM CDT
Astronomical Twilight 3:54 AM CDT 11:57 PM CDT
Moon 11:20 AM CDT 11:15 PM CDT
Length of Visible Light 16h 22m
Length of Day
15h 07m
Tomorrow will be 2m 48s shorter.
Waxing Crescent, 20% of the Moon is Illuminated
Today
Waxing Crescent
Aug 3
First Quarter
Aug 10
Full
Aug 17
Last Quarter
Aug 25
New

Today's Extremes

State Highs State Lows

Community

WunderPhotos

Upload Photos

1,739,386 photos uploaded!

Nearby

Snow Depth

Station Depth Elevation
No new snow has been reported.

Earthquake Activity

City Distance Mag. Time & Date
No recent earthquake activity has been reported nearby.
Minimum magnitude displayed is 2.5.

Coastal Water Temperatures

Place Temperature
No Stations Reporting

Nearby Weather Stations

Station Location Temp. Heat Index Dew Point Humidity Wind Precip. Elev Updated Type
MesoWest SOURIS RIVER BELOW RAFFERTY RES, Estevan 73 °F 71 °F - - North  at  - 0.00 in / hr 1753 ft 10:00 AM CST MADIS

Show More Stations Show Fewer Stations